Littleport, Iowa
Current Conditions -  °F | °C
As of 1:15 PM on Monday 20 Oct 2014 (Local Time) from KPDC Reporting Station
Scattered Clouds Scattered Clouds  
Wind Chill: 64°   Ceiling: Unl
Heat Index: 64°   Visibility: 10mi
Dew Point: 40°   Wind: 17mph
Humidity: 42%   Direction: 300°WNW
Pressure: 29.92"   Gusts: 22mph
Location:  42.75°N, 91.37°W
Report Text: KPDC 201815Z AUTO 30015G19KT 10SM SCT048 18/05 A2992 RMK AO2 T01760046
Loading
Personal Weather Stations






























Interactive Weather Map
Tropical Storm Tracking
New forecast layout! Learn more

10-Day Weather Forecast

Advertisements
Track Severe Weather on mobile